sensor_id;sensor_type;location;lat;lon;timestamp;pressure;altitude;pressure_sealevel;temperature;humidity
42727;BME280;28372;56.832;60.658;2022-07-05T00:01:09;97323.00;;;13.27;63.22
42727;BME280;28372;56.832;60.658;2022-07-05T00:03:38;97318.03;;;13.22;63.53
42727;BME280;28372;56.832;60.658;2022-07-05T00:06:05;97325.41;;;13.17;63.71
42727;BME280;28372;56.832;60.658;2022-07-05T00:08:33;97318.09;;;13.11;63.40
42727;BME280;28372;56.832;60.658;2022-07-05T00:11:00;97325.44;;;13.14;63.14
42727;BME280;28372;56.832;60.658;2022-07-05T00:13:28;97337.09;;;13.11;63.08
42727;BME280;28372;56.832;60.658;2022-07-05T00:15:56;97332.91;;;13.02;63.43
42727;BME280;28372;56.832;60.658;2022-07-05T00:18:23;97329.75;;;13.08;63.57
42727;BME280;28372;56.832;60.658;2022-07-05T00:20:51;97317.34;;;13.07;63.12
42727;BME280;28372;56.832;60.658;2022-07-05T00:23:18;97326.25;;;13.07;63.46
42727;BME280;28372;56.832;60.658;2022-07-05T00:25:46;97338.31;;;13.06;63.65
42727;BME280;28372;56.832;60.658;2022-07-05T00:28:13;97327.47;;;13.02;64.01
42727;BME280;28372;56.832;60.658;2022-07-05T00:30:42;97333.22;;;13.12;63.54
42727;BME280;28372;56.832;60.658;2022-07-05T00:33:09;97347.09;;;13.21;63.16
42727;BME280;28372;56.832;60.658;2022-07-05T00:35:37;97335.13;;;13.18;62.48
42727;BME280;28372;56.832;60.658;2022-07-05T00:38:05;97332.75;;;13.24;62.40
42727;BME280;28372;56.832;60.658;2022-07-05T00:40:32;97331.56;;;13.25;61.63
42727;BME280;28372;56.832;60.658;2022-07-05T00:43:00;97335.06;;;13.22;61.79
42727;BME280;28372;56.832;60.658;2022-07-05T00:45:27;97336.22;;;13.25;62.00
42727;BME280;28372;56.832;60.658;2022-07-05T00:47:55;97332.34;;;13.26;61.85
42727;BME280;28372;56.832;60.658;2022-07-05T00:50:22;97349.75;;;13.28;61.65
42727;BME280;28372;56.832;60.658;2022-07-05T00:52:53;97344.25;;;13.43;62.96
42727;BME280;28372;56.832;60.658;2022-07-05T00:55:21;97340.00;;;13.42;61.39
42727;BME280;28372;56.832;60.658;2022-07-05T00:57:49;97343.84;;;13.44;61.60
42727;BME280;28372;56.832;60.658;2022-07-05T01:00:17;97341.06;;;13.51;60.42
42727;BME280;28372;56.832;60.658;2022-07-05T01:02:46;97343.38;;;13.57;60.06
42727;BME280;28372;56.832;60.658;2022-07-05T01:05:13;97347.59;;;13.61;59.38
42727;BME280;28372;56.832;60.658;2022-07-05T01:07:41;97344.47;;;13.63;58.71
42727;BME280;28372;56.832;60.658;2022-07-05T01:10:09;97346.34;;;13.69;58.23
42727;BME280;28372;56.832;60.658;2022-07-05T01:12:40;97357.06;;;13.84;59.51
42727;BME280;28372;56.832;60.658;2022-07-05T01:15:09;97344.72;;;13.76;57.24
42727;BME280;28372;56.832;60.658;2022-07-05T01:17:36;97350.09;;;13.83;56.92
42727;BME280;28372;56.832;60.658;2022-07-05T01:20:06;97360.84;;;13.97;57.16
42727;BME280;28372;56.832;60.658;2022-07-05T01:23:07;97355.38;;;14.32;56.78
42727;BME280;28372;56.832;60.658;2022-07-05T01:25:35;97356.88;;;14.05;55.69
42727;BME280;28372;56.832;60.658;2022-07-05T01:28:04;97359.44;;;14.16;55.65
42727;BME280;28372;56.832;60.658;2022-07-05T01:30:34;97358.56;;;14.27;55.06
42727;BME280;28372;56.832;60.658;2022-07-05T01:33:05;97352.22;;;14.37;55.41
42727;BME280;28372;56.832;60.658;2022-07-05T01:35:33;97346.47;;;14.31;53.52
42727;BME280;28372;56.832;60.658;2022-07-05T01:38:01;97351.06;;;14.38;53.13
42727;BME280;28372;56.832;60.658;2022-07-05T01:40:28;97347.88;;;14.43;52.53
42727;BME280;28372;56.832;60.658;2022-07-05T01:42:56;97340.91;;;14.42;52.59
42727;BME280;28372;56.832;60.658;2022-07-05T01:45:24;97337.41;;;14.42;52.68
42727;BME280;28372;56.832;60.658;2022-07-05T01:48:10;97345.78;;;14.54;52.44
42727;BME280;28372;56.832;60.658;2022-07-05T01:50:42;97337.16;;;14.60;52.18
42727;BME280;28372;56.832;60.658;2022-07-05T01:53:17;97353.75;;;14.72;51.85
42727;BME280;28372;56.832;60.658;2022-07-05T01:55:46;97354.88;;;14.75;51.14
42727;BME280;28372;56.832;60.658;2022-07-05T01:58:14;97355.63;;;14.76;50.69
42727;BME280;28372;56.832;60.658;2022-07-05T02:00:46;97351.19;;;14.89;51.54
42727;BME280;28372;56.832;60.658;2022-07-05T02:03:15;97362.13;;;14.85;50.46
42727;BME280;28372;56.832;60.658;2022-07-05T02:06:00;97344.09;;;14.95;50.26
42727;BME280;28372;56.832;60.658;2022-07-05T02:08:29;97354.53;;;15.00;49.44
42727;BME280;28372;56.832;60.658;2022-07-05T02:10:57;97347.78;;;15.08;49.44
42727;BME280;28372;56.832;60.658;2022-07-05T02:13:25;97347.34;;;15.14;48.27
42727;BME280;28372;56.832;60.658;2022-07-05T02:15:53;97339.09;;;15.17;48.35
42727;BME280;28372;56.832;60.658;2022-07-05T02:18:20;97344.38;;;15.28;48.17
42727;BME280;28372;56.832;60.658;2022-07-05T02:20:49;97344.69;;;15.34;47.65
42727;BME280;28372;56.832;60.658;2022-07-05T02:23:17;97339.53;;;15.39;47.93
42727;BME280;28372;56.832;60.658;2022-07-05T02:25:45;97340.94;;;15.48;47.83
42727;BME280;28372;56.832;60.658;2022-07-05T02:28:16;97345.97;;;15.49;47.42
42727;BME280;28372;56.832;60.658;2022-07-05T02:30:47;97336.13;;;15.55;47.83
42727;BME280;28372;56.832;60.658;2022-07-05T02:33:15;97342.53;;;15.69;46.44
42727;BME280;28372;56.832;60.658;2022-07-05T02:35:43;97342.81;;;15.74;46.33
42727;BME280;28372;56.832;60.658;2022-07-05T02:38:11;97334.97;;;15.80;45.90
42727;BME280;28372;56.832;60.658;2022-07-05T02:40:39;97351.91;;;15.91;45.28
42727;BME280;28372;56.832;60.658;2022-07-05T02:43:08;97346.09;;;15.89;45.81
42727;BME280;28372;56.832;60.658;2022-07-05T02:45:35;97346.31;;;15.75;45.67
42727;BME280;28372;56.832;60.658;2022-07-05T02:48:03;97359.59;;;15.97;46.21
42727;BME280;28372;56.832;60.658;2022-07-05T02:50:32;97355.84;;;16.10;45.80
42727;BME280;28372;56.832;60.658;2022-07-05T02:53:01;97364.50;;;16.25;45.49
42727;BME280;28372;56.832;60.658;2022-07-05T02:55:28;97356.81;;;16.40;44.75
42727;BME280;28372;56.832;60.658;2022-07-05T02:57:57;97350.88;;;16.46;44.58
42727;BME280;28372;56.832;60.658;2022-07-05T03:00:28;97350.56;;;16.60;44.17
42727;BME280;28372;56.832;60.658;2022-07-05T03:02:56;97353.06;;;16.91;44.39
42727;BME280;28372;56.832;60.658;2022-07-05T03:05:26;97361.59;;;17.09;43.20
42727;BME280;28372;56.832;60.658;2022-07-05T03:07:58;97360.34;;;17.47;42.66
42727;BME280;28372;56.832;60.658;2022-07-05T03:10:28;97355.84;;;18.03;41.64
42727;BME280;28372;56.832;60.658;2022-07-05T03:12:56;97351.50;;;18.73;41.08
42727;BME280;28372;56.832;60.658;2022-07-05T03:15:24;97348.09;;;19.46;38.68
42727;BME280;28372;56.832;60.658;2022-07-05T03:17:52;97330.69;;;19.75;37.81
42727;BME280;28372;56.832;60.658;2022-07-05T03:20:22;97351.03;;;20.00;37.58
42727;BME280;28372;56.832;60.658;2022-07-05T03:22:50;97341.97;;;20.12;36.55
42727;BME280;28372;56.832;60.658;2022-07-05T03:25:22;97340.25;;;20.50;37.00
42727;BME280;28372;56.832;60.658;2022-07-05T03:27:50;97339.78;;;21.23;35.70
42727;BME280;28372;56.832;60.658;2022-07-05T03:30:17;97345.59;;;21.94;34.68
42727;BME280;28372;56.832;60.658;2022-07-05T03:32:45;97353.06;;;22.49;33.60
42727;BME280;28372;56.832;60.658;2022-07-05T03:35:13;97341.47;;;22.88;31.72
42727;BME280;28372;56.832;60.658;2022-07-05T03:37:42;97343.09;;;23.37;30.91
42727;BME280;28372;56.832;60.658;2022-07-05T03:40:09;97341.44;;;23.79;30.01
42727;BME280;28372;56.832;60.658;2022-07-05T03:42:38;97347.69;;;23.89;29.31
42727;BME280;28372;56.832;60.658;2022-07-05T03:45:05;97351.66;;;23.88;29.05
42727;BME280;28372;56.832;60.658;2022-07-05T03:47:35;97349.66;;;23.88;29.34
42727;BME280;28372;56.832;60.658;2022-07-05T03:50:03;97359.34;;;23.84;28.56
42727;BME280;28372;56.832;60.658;2022-07-05T03:52:31;97351.81;;;23.84;29.26
42727;BME280;28372;56.832;60.658;2022-07-05T03:54:59;97350.50;;;24.19;28.48
42727;BME280;28372;56.832;60.658;2022-07-05T03:57:29;97354.88;;;24.40;28.21
42727;BME280;28372;56.832;60.658;2022-07-05T03:59:57;97352.50;;;24.33;28.03
42727;BME280;28372;56.832;60.658;2022-07-05T04:02:26;97340.19;;;24.19;28.51
42727;BME280;28372;56.832;60.658;2022-07-05T04:04:54;97357.44;;;24.14;28.31
42727;BME280;28372;56.832;60.658;2022-07-05T04:07:22;97345.72;;;24.19;27.91
42727;BME280;28372;56.832;60.658;2022-07-05T04:09:49;97341.22;;;24.07;27.99
42727;BME280;28372;56.832;60.658;2022-07-05T04:12:17;97340.63;;;24.03;28.45
42727;BME280;28372;56.832;60.658;2022-07-05T04:14:45;97348.72;;;23.91;28.79
42727;BME280;28372;56.832;60.658;2022-07-05T04:17:14;97352.13;;;23.86;28.42
42727;BME280;28372;56.832;60.658;2022-07-05T04:19:41;97358.38;;;23.87;28.68
42727;BME280;28372;56.832;60.658;2022-07-05T04:22:10;97349.72;;;23.55;29.08
42727;BME280;28372;56.832;60.658;2022-07-05T04:24:38;97350.72;;;23.67;29.05
42727;BME280;28372;56.832;60.658;2022-07-05T04:27:24;97359.88;;;23.97;29.56
42727;BME280;28372;56.832;60.658;2022-07-05T04:29:52;97362.28;;;24.04;28.87
42727;BME280;28372;56.832;60.658;2022-07-05T04:32:19;97355.81;;;24.07;28.75
42727;BME280;28372;56.832;60.658;2022-07-05T04:34:47;97351.91;;;24.14;28.86
42727;BME280;28372;56.832;60.658;2022-07-05T04:37:14;97353.91;;;24.14;28.51
42727;BME280;28372;56.832;60.658;2022-07-05T04:39:42;97348.47;;;24.19;28.44
42727;BME280;28372;56.832;60.658;2022-07-05T04:42:11;97348.38;;;24.14;28.05
42727;BME280;28372;56.832;60.658;2022-07-05T04:44:38;97356.00;;;24.19;28.54
42727;BME280;28372;56.832;60.658;2022-07-05T04:47:06;97362.28;;;24.19;28.51
42727;BME280;28372;56.832;60.658;2022-07-05T04:49:34;97356.28;;;24.21;28.65
42727;BME280;28372;56.832;60.658;2022-07-05T04:52:02;97360.75;;;24.03;28.41
42727;BME280;28372;56.832;60.658;2022-07-05T04:54:32;97359.38;;;23.99;28.56
42727;BME280;28372;56.832;60.658;2022-07-05T04:56:59;97359.50;;;23.80;28.31
42727;BME280;28372;56.832;60.658;2022-07-05T04:59:26;97361.47;;;23.65;28.47
42727;BME280;28372;56.832;60.658;2022-07-05T05:01:54;97363.00;;;23.41;28.63
42727;BME280;28372;56.832;60.658;2022-07-05T05:04:21;97359.75;;;23.43;28.99
42727;BME280;28372;56.832;60.658;2022-07-05T05:06:49;97363.28;;;23.43;29.08
42727;BME280;28372;56.832;60.658;2022-07-05T05:09:17;97361.63;;;23.37;28.79
42727;BME280;28372;56.832;60.658;2022-07-05T05:11:44;97370.44;;;23.26;29.06
42727;BME280;28372;56.832;60.658;2022-07-05T05:14:12;97350.28;;;23.01;29.23
42727;BME280;28372;56.832;60.658;2022-07-05T05:16:39;97361.31;;;23.01;29.46
42727;BME280;28372;56.832;60.658;2022-07-05T05:19:07;97368.09;;;22.91;29.76
42727;BME280;28372;56.832;60.658;2022-07-05T05:21:34;97374.56;;;22.88;29.82
42727;BME280;28372;56.832;60.658;2022-07-05T05:24:02;97369.69;;;22.73;29.61
42727;BME280;28372;56.832;60.658;2022-07-05T05:26:29;97377.00;;;22.76;30.20
42727;BME280;28372;56.832;60.658;2022-07-05T05:28:57;97384.41;;;22.61;30.48
42727;BME280;28372;56.832;60.658;2022-07-05T05:31:24;97377.06;;;22.58;30.61
42727;BME280;28372;56.832;60.658;2022-07-05T05:33:52;97374.16;;;22.52;29.86
42727;BME280;28372;56.832;60.658;2022-07-05T05:36:19;97377.38;;;22.60;30.26
42727;BME280;28372;56.832;60.658;2022-07-05T05:38:47;97371.88;;;22.60;30.16
42727;BME280;28372;56.832;60.658;2022-07-05T05:41:17;97377.06;;;22.58;30.09
42727;BME280;28372;56.832;60.658;2022-07-05T05:43:44;97375.09;;;22.49;29.90
42727;BME280;28372;56.832;60.658;2022-07-05T05:46:12;97380.31;;;22.38;30.17
42727;BME280;28372;56.832;60.658;2022-07-05T05:48:39;97383.03;;;22.29;30.80
42727;BME280;28372;56.832;60.658;2022-07-05T05:51:07;97377.09;;;22.21;31.20
42727;BME280;28372;56.832;60.658;2022-07-05T05:53:34;97377.56;;;22.19;30.92
42727;BME280;28372;56.832;60.658;2022-07-05T05:56:02;97375.56;;;22.20;31.28
42727;BME280;28372;56.832;60.658;2022-07-05T05:58:29;97377.38;;;22.23;31.33
42727;BME280;28372;56.832;60.658;2022-07-05T06:00:57;97376.63;;;22.22;31.31
42727;BME280;28372;56.832;60.658;2022-07-05T06:03:26;97387.94;;;22.24;31.65
42727;BME280;28372;56.832;60.658;2022-07-05T06:05:54;97378.31;;;22.20;31.72
42727;BME280;28372;56.832;60.658;2022-07-05T06:08:22;97386.75;;;22.16;31.83
42727;BME280;28372;56.832;60.658;2022-07-05T06:10:50;97391.31;;;22.01;32.04
42727;BME280;28372;56.832;60.658;2022-07-05T06:13:26;97383.06;;;21.92;31.88
42727;BME280;28372;56.832;60.658;2022-07-05T06:15:55;97381.06;;;21.83;32.38
42727;BME280;28372;56.832;60.658;2022-07-05T06:18:23;97376.31;;;21.74;32.18
42727;BME280;28372;56.832;60.658;2022-07-05T06:20:51;97380.13;;;21.58;32.59
42727;BME280;28372;56.832;60.658;2022-07-05T06:23:18;97370.78;;;21.55;32.57
42727;BME280;28372;56.832;60.658;2022-07-05T06:25:45;97377.31;;;21.49;32.55
42727;BME280;28372;56.832;60.658;2022-07-05T06:28:13;97383.56;;;21.40;32.59
42727;BME280;28372;56.832;60.658;2022-07-05T06:30:41;97387.19;;;21.28;32.70
42727;BME280;28372;56.832;60.658;2022-07-05T06:33:08;97381.50;;;21.13;33.46
42727;BME280;28372;56.832;60.658;2022-07-05T06:35:36;97378.00;;;21.21;33.44
42727;BME280;28372;56.832;60.658;2022-07-05T06:38:06;97378.75;;;21.22;33.03
42727;BME280;28372;56.832;60.658;2022-07-05T06:40:35;97382.41;;;21.19;33.42
42727;BME280;28372;56.832;60.658;2022-07-05T06:43:07;97382.41;;;21.19;33.39
42727;BME280;28372;56.832;60.658;2022-07-05T06:45:44;97374.72;;;21.04;33.44
42727;BME280;28372;56.832;60.658;2022-07-05T06:48:12;97375.50;;;21.05;33.53
42727;BME280;28372;56.832;60.658;2022-07-05T06:50:42;97370.03;;;21.14;33.69
42727;BME280;28372;56.832;60.658;2022-07-05T06:53:10;97364.84;;;21.16;33.99
42727;BME280;28372;56.832;60.658;2022-07-05T06:55:39;97382.63;;;21.34;34.00
42727;BME280;28372;56.832;60.658;2022-07-05T06:58:19;97374.00;;;21.54;33.58
42727;BME280;28372;56.832;60.658;2022-07-05T07:00:46;97358.75;;;21.71;33.39
42727;BME280;28372;56.832;60.658;2022-07-05T07:03:34;97354.44;;;22.17;33.44
42727;BME280;28372;56.832;60.658;2022-07-05T07:06:21;97358.22;;;22.56;32.50
42727;BME280;28372;56.832;60.658;2022-07-05T07:08:49;97342.63;;;22.96;30.92
42727;BME280;28372;56.832;60.658;2022-07-05T07:11:33;97335.91;;;23.55;31.32
42727;BME280;28372;56.832;60.658;2022-07-05T07:14:02;97334.00;;;24.24;29.99
42727;BME280;28372;56.832;60.658;2022-07-05T07:16:29;97326.09;;;24.92;29.56
42727;BME280;28372;56.832;60.658;2022-07-05T07:18:57;97323.47;;;25.39;28.52
42727;BME280;28372;56.832;60.658;2022-07-05T07:21:41;97324.59;;;25.88;27.93
42727;BME280;28372;56.832;60.658;2022-07-05T07:24:10;97328.75;;;26.51;26.69
42727;BME280;28372;56.832;60.658;2022-07-05T07:26:37;97319.53;;;26.97;26.43
42727;BME280;28372;56.832;60.658;2022-07-05T07:29:25;97316.56;;;27.44;25.58
42727;BME280;28372;56.832;60.658;2022-07-05T07:31:53;97328.88;;;27.98;24.78
42727;BME280;28372;56.832;60.658;2022-07-05T07:34:20;97321.13;;;28.42;24.83
42727;BME280;28372;56.832;60.658;2022-07-05T07:36:48;97329.00;;;28.77;23.66
42727;BME280;28372;56.832;60.658;2022-07-05T07:39:16;97324.44;;;28.91;23.52
42727;BME280;28372;56.832;60.658;2022-07-05T07:41:44;97320.16;;;28.84;23.13
42727;BME280;28372;56.832;60.658;2022-07-05T07:44:11;97327.72;;;28.73;22.99
42727;BME280;28372;56.832;60.658;2022-07-05T07:46:39;97324.69;;;28.53;22.59
42727;BME280;28372;56.832;60.658;2022-07-05T07:49:07;97326.19;;;28.43;22.49
42727;BME280;28372;56.832;60.658;2022-07-05T07:51:35;97321.09;;;28.19;23.26
42727;BME280;28372;56.832;60.658;2022-07-05T07:54:03;97316.78;;;28.12;23.40
42727;BME280;28372;56.832;60.658;2022-07-05T07:56:30;97319.28;;;27.99;22.80
42727;BME280;28372;56.832;60.658;2022-07-05T07:58:58;97312.13;;;27.81;23.41
42727;BME280;28372;56.832;60.658;2022-07-05T08:01:26;97314.84;;;27.58;23.32
42727;BME280;28372;56.832;60.658;2022-07-05T08:03:53;97322.13;;;27.50;23.44
42727;BME280;28372;56.832;60.658;2022-07-05T08:06:21;97313.03;;;27.44;23.67
42727;BME280;28372;56.832;60.658;2022-07-05T08:08:48;97310.13;;;27.32;24.13
42727;BME280;28372;56.832;60.658;2022-07-05T08:11:16;97305.09;;;27.31;23.80
42727;BME280;28372;56.832;60.658;2022-07-05T08:13:43;97308.88;;;27.28;23.73
42727;BME280;28372;56.832;60.658;2022-07-05T08:16:11;97292.94;;;27.23;24.07
42727;BME280;28372;56.832;60.658;2022-07-05T08:18:38;97301.81;;;27.32;24.15
42727;BME280;28372;56.832;60.658;2022-07-05T08:21:25;97317.78;;;27.38;24.29
42727;BME280;28372;56.832;60.658;2022-07-05T08:23:59;97317.78;;;27.38;24.03
42727;BME280;28372;56.832;60.658;2022-07-05T08:26:28;97309.00;;;27.50;24.07
42727;BME280;28372;56.832;60.658;2022-07-05T08:29:00;97314.03;;;27.52;23.98
42727;BME280;28372;56.832;60.658;2022-07-05T08:31:42;97310.31;;;27.61;23.99
42727;BME280;28372;56.832;60.658;2022-07-05T08:34:10;97317.31;;;27.50;24.24
42727;BME280;28372;56.832;60.658;2022-07-05T08:36:38;97322.19;;;27.61;24.13
42727;BME280;28372;56.832;60.658;2022-07-05T08:39:09;97305.50;;;27.61;23.71
42727;BME280;28372;56.832;60.658;2022-07-05T08:41:39;97306.53;;;27.64;23.58
42727;BME280;28372;56.832;60.658;2022-07-05T08:44:08;97312.34;;;27.66;24.01
42727;BME280;28372;56.832;60.658;2022-07-05T08:46:39;97313.88;;;27.67;23.59
42727;BME280;28372;56.832;60.658;2022-07-05T08:49:07;97306.53;;;27.64;23.66
42727;BME280;28372;56.832;60.658;2022-07-05T08:51:40;97311.59;;;27.65;23.15
42727;BME280;28372;56.832;60.658;2022-07-05T08:54:09;97301.22;;;27.66;23.53
42727;BME280;28372;56.832;60.658;2022-07-05T08:56:44;97308.09;;;27.76;23.24
42727;BME280;28372;56.832;60.658;2022-07-05T08:59:31;97299.22;;;27.66;23.31
42727;BME280;28372;56.832;60.658;2022-07-05T09:02:00;97291.09;;;27.57;23.62
42727;BME280;28372;56.832;60.658;2022-07-05T09:04:35;97305.28;;;27.65;23.17
42727;BME280;28372;56.832;60.658;2022-07-05T09:07:05;97311.50;;;27.43;22.99
42727;BME280;28372;56.832;60.658;2022-07-05T09:09:39;97317.88;;;27.60;23.31
42727;BME280;28372;56.832;60.658;2022-07-05T09:12:12;97311.75;;;27.45;23.12
42727;BME280;28372;56.832;60.658;2022-07-05T09:14:56;97297.88;;;27.45;22.99
42727;BME280;28372;56.832;60.658;2022-07-05T09:17:24;97293.75;;;27.34;23.26
42727;BME280;28372;56.832;60.658;2022-07-05T09:20:08;97308.34;;;27.78;23.19
42727;BME280;28372;56.832;60.658;2022-07-05T09:22:53;97322.22;;;27.73;23.72
42727;BME280;28372;56.832;60.658;2022-07-05T09:25:23;97309.47;;;27.43;23.47
42727;BME280;28372;56.832;60.658;2022-07-05T09:28:02;97320.59;;;27.49;24.04
42727;BME280;28372;56.832;60.658;2022-07-05T09:35:41;97303.38;;;27.39;24.15
42727;BME280;28372;56.832;60.658;2022-07-05T09:38:19;97308.31;;;27.67;23.85
42727;BME280;28372;56.832;60.658;2022-07-05T09:43:17;97290.19;;;27.28;23.10
42727;BME280;28372;56.832;60.658;2022-07-05T09:48:23;97300.84;;;26.92;23.68
42727;BME280;28372;56.832;60.658;2022-07-05T09:53:54;97302.09;;;26.91;24.36
42727;BME280;28372;56.832;60.658;2022-07-05T09:56:27;97304.84;;;26.86;24.52
42727;BME280;28372;56.832;60.658;2022-07-05T09:59:18;97309.81;;;27.13;25.02
42727;BME280;28372;56.832;60.658;2022-07-05T10:01:47;97303.72;;;26.72;24.22
42727;BME280;28372;56.832;60.658;2022-07-05T10:04:15;97297.56;;;26.62;24.13
42727;BME280;28372;56.832;60.658;2022-07-05T10:06:43;97300.53;;;26.53;24.62
42727;BME280;28372;56.832;60.658;2022-07-05T10:09:11;97293.09;;;26.38;24.86
42727;BME280;28372;56.832;60.658;2022-07-05T10:11:42;97289.81;;;26.40;25.20
42727;BME280;28372;56.832;60.658;2022-07-05T10:14:21;97290.28;;;26.64;25.13
42727;BME280;28372;56.832;60.658;2022-07-05T10:17:01;97310.19;;;26.63;25.15
42727;BME280;28372;56.832;60.658;2022-07-05T10:19:33;97300.69;;;26.43;25.40
42727;BME280;28372;56.832;60.658;2022-07-05T10:22:02;97301.66;;;26.35;25.13
42727;BME280;28372;56.832;60.658;2022-07-05T10:24:47;97300.63;;;26.32;25.57
42727;BME280;28372;56.832;60.658;2022-07-05T10:27:17;97299.78;;;26.26;25.38
42727;BME280;28372;56.832;60.658;2022-07-05T10:29:48;97304.88;;;26.27;25.64
42727;BME280;28372;56.832;60.658;2022-07-05T10:32:16;97302.34;;;26.03;25.76
42727;BME280;28372;56.832;60.658;2022-07-05T10:34:44;97306.53;;;25.72;25.84
42727;BME280;28372;56.832;60.658;2022-07-05T10:37:31;97312.06;;;25.72;25.90
42727;BME280;28372;56.832;60.658;2022-07-05T10:40:01;97307.00;;;25.71;26.71
42727;BME280;28372;56.832;60.658;2022-07-05T10:42:33;97304.72;;;25.69;26.94
42727;BME280;28372;56.832;60.658;2022-07-05T10:45:02;97306.13;;;25.59;27.07
42727;BME280;28372;56.832;60.658;2022-07-05T10:47:30;97305.56;;;25.55;27.02
42727;BME280;28372;56.832;60.658;2022-07-05T10:50:04;97309.94;;;25.61;27.14
42727;BME280;28372;56.832;60.658;2022-07-05T10:52:32;97294.13;;;25.47;27.36
42727;BME280;28372;56.832;60.658;2022-07-05T10:55:20;97307.63;;;25.80;27.08
42727;BME280;28372;56.832;60.658;2022-07-05T11:01:30;97308.50;;;25.30;27.60
42727;BME280;28372;56.832;60.658;2022-07-05T11:06:05;97310.47;;;25.09;28.04
42727;BME280;28372;56.832;60.658;2022-07-05T11:09:34;97312.34;;;25.33;27.08
42727;BME280;28372;56.832;60.658;2022-07-05T11:11:45;97308.28;;;25.13;27.05
42727;BME280;28372;56.832;60.658;2022-07-05T11:14:36;97308.81;;;24.97;27.05
42727;BME280;28372;56.832;60.658;2022-07-05T11:17:16;97322.50;;;25.06;26.74
42727;BME280;28372;56.832;60.658;2022-07-05T11:20:13;97308.84;;;24.67;26.94
42727;BME280;28372;56.832;60.658;2022-07-05T11:23:03;97310.78;;;25.11;27.10
42727;BME280;28372;56.832;60.658;2022-07-05T11:25:33;97318.59;;;24.62;27.07
42727;BME280;28372;56.832;60.658;2022-07-05T11:28:06;97310.34;;;24.53;27.44
42727;BME280;28372;56.832;60.658;2022-07-05T11:30:48;97318.69;;;24.68;26.85
42727;BME280;28372;56.832;60.658;2022-07-05T11:33:45;97317.22;;;24.73;26.83
42727;BME280;28372;56.832;60.658;2022-07-05T11:36:25;97316.66;;;24.39;26.94
42727;BME280;28372;56.832;60.658;2022-07-05T11:39:13;97319.63;;;24.50;27.17
42727;BME280;28372;56.832;60.658;2022-07-05T11:41:45;97321.69;;;24.10;27.62
42727;BME280;28372;56.832;60.658;2022-07-05T11:44:14;97311.34;;;23.81;28.31
42727;BME280;28372;56.832;60.658;2022-07-05T11:46:44;97320.03;;;23.65;28.73
42727;BME280;28372;56.832;60.658;2022-07-05T11:49:20;97326.16;;;23.69;29.28
42727;BME280;28372;56.832;60.658;2022-07-05T11:51:58;97325.09;;;23.66;29.14
42727;BME280;28372;56.832;60.658;2022-07-05T11:54:28;97325.59;;;23.40;29.50
42727;BME280;28372;56.832;60.658;2022-07-05T11:56:56;97316.13;;;23.32;29.60
42727;BME280;28372;56.832;60.658;2022-07-05T11:59:25;97327.34;;;23.29;29.90
42727;BME280;28372;56.832;60.658;2022-07-05T12:01:53;97318.75;;;23.26;29.81
42727;BME280;28372;56.832;60.658;2022-07-05T12:04:28;97314.25;;;23.38;29.57
42727;BME280;28372;56.832;60.658;2022-07-05T12:06:56;97314.34;;;23.20;30.04
42727;BME280;28372;56.832;60.658;2022-07-05T12:09:26;97316.34;;;23.19;30.18
42727;BME280;28372;56.832;60.658;2022-07-05T12:11:55;97306.28;;;23.07;30.15
42727;BME280;28372;56.832;60.658;2022-07-05T12:14:51;97308.16;;;23.34;29.86
42727;BME280;28372;56.832;60.658;2022-07-05T12:17:20;97306.16;;;23.01;29.77
42727;BME280;28372;56.832;60.658;2022-07-05T12:19:53;97310.91;;;23.01;30.12
42727;BME280;28372;56.832;60.658;2022-07-05T12:22:49;97302.81;;;23.31;29.61
42727;BME280;28372;56.832;60.658;2022-07-05T12:25:21;97302.94;;;23.03;30.16
42727;BME280;28372;56.832;60.658;2022-07-05T12:27:52;97309.25;;;22.94;30.74
42727;BME280;28372;56.832;60.658;2022-07-05T12:30:20;97304.75;;;22.72;30.46
42727;BME280;28372;56.832;60.658;2022-07-05T12:33:05;97311.84;;;22.98;30.70
42727;BME280;28372;56.832;60.658;2022-07-05T12:35:45;97306.75;;;22.72;31.13
42727;BME280;28372;56.832;60.658;2022-07-05T12:38:14;97312.13;;;22.66;30.50
42727;BME280;28372;56.832;60.658;2022-07-05T12:40:48;97319.91;;;22.68;31.02
42727;BME280;28372;56.832;60.658;2022-07-05T12:43:17;97311.38;;;22.66;31.44
42727;BME280;28372;56.832;60.658;2022-07-05T12:46:03;97317.22;;;22.92;30.96
42727;BME280;28372;56.832;60.658;2022-07-05T12:48:35;97312.44;;;22.68;31.46
42727;BME280;28372;56.832;60.658;2022-07-05T12:51:03;97317.69;;;22.48;31.60
42727;BME280;28372;56.832;60.658;2022-07-05T12:53:48;97308.53;;;22.41;31.63
42727;BME280;28372;56.832;60.658;2022-07-05T12:56:35;97304.56;;;22.33;31.49
42727;BME280;28372;56.832;60.658;2022-07-05T12:59:57;97309.38;;;22.66;31.51
42727;BME280;28372;56.832;60.658;2022-07-05T13:05:07;97304.69;;;22.20;32.43
42727;BME280;28372;56.832;60.658;2022-07-05T13:07:42;97309.63;;;22.35;32.58
42727;BME280;28372;56.832;60.658;2022-07-05T13:10:15;97309.75;;;22.31;32.61
42727;BME280;28372;56.832;60.658;2022-07-05T13:12:43;97307.16;;;22.18;32.38
42727;BME280;28372;56.832;60.658;2022-07-05T13:15:11;97302.31;;;22.04;32.78
42727;BME280;28372;56.832;60.658;2022-07-05T13:17:40;97316.81;;;22.04;32.80
42727;BME280;28372;56.832;60.658;2022-07-05T13:20:08;97301.84;;;21.96;33.05
42727;BME280;28372;56.832;60.658;2022-07-05T13:22:36;97301.69;;;21.90;33.12
42727;BME280;28372;56.832;60.658;2022-07-05T13:25:04;97307.19;;;21.90;33.05
42727;BME280;28372;56.832;60.658;2022-07-05T13:27:32;97296.03;;;21.85;33.27
42727;BME280;28372;56.832;60.658;2022-07-05T13:29:59;97294.19;;;21.82;33.22
42727;BME280;28372;56.832;60.658;2022-07-05T13:32:28;97295.88;;;21.79;33.53